createdAt,value
2017-05-03T18:39:34.495Z,593.74
2017-05-03T18:42:02.758Z,577.68
2017-05-03T18:44:31.200Z,551.82
2017-05-03T18:46:59.439Z,534.14
2017-05-03T18:49:28.511Z,525.66
2017-05-03T18:51:57.567Z,612.86
2017-05-03T18:54:25.872Z,673.66
2017-05-03T18:56:54.854Z,649.40
2017-05-03T18:59:23.246Z,622.46
2017-05-03T19:01:52.206Z,599.82
2017-05-03T19:04:20.483Z,573.18
2017-05-03T19:06:49.578Z,636.66
2017-05-03T19:09:17.945Z,826.98
2017-05-03T19:11:46.214Z,908.26
2017-05-03T19:14:16.066Z,875.32
2017-05-03T19:21:54.424Z,711.72
2017-05-03T19:24:24.283Z,706.20
2017-05-03T19:26:52.658Z,700.64
2017-05-03T19:29:21.763Z,707.30
2017-05-03T19:31:50.063Z,696.80
2017-05-03T19:34:18.361Z,688.06
2017-05-03T19:36:47.822Z,685.96
2017-05-03T19:39:16.157Z,680.90
2017-05-03T19:41:45.234Z,680.86
2017-05-03T19:44:15.047Z,658.30
2017-05-03T19:46:44.146Z,663.00
2017-05-03T19:49:12.456Z,655.14
2017-05-03T19:51:41.868Z,639.94
2017-05-03T19:54:10.181Z,634.28
2017-05-03T19:56:39.230Z,616.88
2017-05-03T19:59:09.296Z,618.92
2017-05-03T20:01:38.472Z,603.68
2017-05-03T20:04:08.244Z,615.80
2017-05-03T20:06:37.307Z,645.12
2017-05-03T20:09:05.657Z,657.62
2017-05-03T20:11:34.768Z,675.56
2017-05-03T20:14:03.107Z,683.90
2017-05-03T20:16:31.605Z,692.36
2017-05-03T20:19:00.673Z,692.26
2017-05-03T20:21:29.094Z,697.62
2017-05-03T20:23:57.503Z,692.46
2017-05-03T20:26:25.817Z,683.16
2017-05-03T20:28:54.923Z,691.46
2017-05-03T20:31:23.241Z,688.08
2017-05-03T20:33:51.567Z,691.70
2017-05-03T20:36:19.830Z,756.92
2017-05-03T20:38:48.894Z,679.76
2017-05-03T20:41:17.647Z,602.68
2017-05-03T20:43:46.122Z,513.68
2017-05-03T20:46:14.415Z,402.32
2017-05-03T20:48:42.737Z,328.50
2017-05-03T20:51:11.805Z,248.16
2017-05-03T20:53:40.211Z,202.00
2017-05-03T20:56:08.564Z,170.98
2017-05-03T20:58:36.879Z,159.46
2017-05-03T21:01:05.218Z,143.70
2017-05-03T21:03:34.273Z,135.78
2017-05-03T21:06:05.447Z,131.36
2017-05-03T21:08:33.738Z,128.98
2017-05-03T21:11:02.127Z,120.16
2017-05-03T21:13:31.235Z,122.56
2017-05-03T21:21:04.358Z,121.26
2017-05-03T21:23:34.189Z,126.26
2017-05-03T21:26:04.195Z,149.08
2017-05-03T21:28:33.511Z,182.50
2017-05-03T21:31:02.769Z,231.18
2017-05-03T21:33:32.811Z,259.14
2017-05-03T21:36:04.221Z,266.96
2017-05-03T21:38:34.862Z,286.70
2017-05-03T21:41:04.886Z,286.76
2017-05-03T21:43:34.977Z,302.88
2017-05-03T21:46:05.061Z,323.52
2017-05-03T21:48:34.331Z,323.48
2017-05-03T21:51:04.180Z,323.00
2017-05-03T21:53:33.421Z,322.20
2017-05-03T21:56:02.690Z,320.10
2017-05-03T21:58:31.928Z,317.50
2017-05-03T22:01:02.072Z,323.06
2017-05-03T22:03:31.660Z,320.78
2017-05-03T22:24:05.533Z,280.30
2017-05-03T22:26:35.718Z,277.98
2017-05-03T22:29:05.207Z,264.00
2017-05-03T22:31:35.216Z,262.34
2017-05-03T22:34:06.074Z,259.00
2017-05-03T22:36:35.315Z,263.60
2017-05-03T22:39:04.543Z,245.56
2017-05-03T22:41:33.756Z,251.70
2017-05-03T22:44:03.737Z,243.28
2017-05-03T22:46:33.934Z,276.14
2017-05-03T22:49:03.149Z,327.62
2017-05-03T22:51:33.075Z,319.74
2017-05-03T22:54:02.360Z,308.32
2017-05-03T22:56:31.738Z,325.02
2017-05-03T22:59:01.737Z,363.36
2017-05-03T23:01:31.654Z,369.22
2017-05-03T23:04:00.921Z,372.80
2017-05-03T23:06:30.135Z,374.00
2017-05-03T23:08:59.406Z,380.54
2017-05-03T23:11:28.811Z,378.66
2017-05-03T23:13:59.337Z,389.18
2017-05-03T23:16:29.409Z,387.06
2017-05-03T23:18:58.776Z,384.44
2017-05-03T23:21:27.988Z,384.42
2017-05-03T23:23:58.068Z,385.48
2017-05-03T23:26:28.054Z,382.54
2017-05-03T23:28:57.399Z,379.36
2017-05-03T23:31:28.083Z,382.90
2017-05-03T23:33:57.565Z,380.84
2017-05-03T23:36:26.773Z,387.04
2017-05-03T23:38:56.029Z,380.74
2017-05-03T23:41:25.275Z,384.74
2017-05-03T23:43:56.065Z,377.76
2017-05-03T23:46:26.742Z,374.88
2017-05-03T23:48:56.003Z,377.42
2017-05-03T23:51:25.216Z,375.90
2017-05-03T23:53:54.574Z,380.64
2017-05-03T23:56:24.704Z,368.22
2017-05-03T23:58:53.940Z,360.54
